Meteo Giornale » Osservazioni meteo Italia » Reggio Calabria

ore: 04:50 - Osservazioni Meteo Reggio Calabria
Lat. 38° 4' N Lon. 15° 39' E Alt. 11 metri s.l.m.

sereno Europe/Rome

28 °C

Sereno

Temp. 24 Ore

23 °C

36 °C

Nord

20.3 Km/h

Dew point 13 °C

Umidità 39 %

Visibilità  10 Km

Il sole sorge alle ore 05:55

Il sole tramonta alle ore 20:12

Data e Ora Cielo e Fenomeni T °C DP °C Um. % Pres. hPa Vis. km Vento km/h
Oggi h: 04:50 sereno Sereno 28 13 39 1015 10 N 20.3
Oggi h: 04:20 sereno Sereno 27 13 42 1015 10 N 18.5
Oggi h: 03:50 sereno Sereno 27 15 47 1015 10 N 16.7
Oggi h: 03:20 sereno Sereno 27 12 39 1015 10 N 18.5
Oggi h: 02:50 sereno Sereno 26 13 44 1015 10 N 14.8
Oggi h: 02:20 sereno Sereno 26 15 50 1015 10 N 11.1
Oggi h: 01:50 sereno Sereno 26 11 39 1016 10 N 3.7
Oggi h: 01:20 sereno Sereno 27 11 36 1016 10 N 3.7
Oggi h: 00:50 sereno Sereno 27 14 44 1016 10 N 5.5
Oggi h: 00:20 sereno Sereno 27 13 42 1016 10 N 3.7
Ieri h: 23:50 sereno Sereno 27 12 39 1016 10 N 5.5
Ieri h: 23:20 sereno Sereno 27 13 42 1017 10 N 3.7
Ieri h: 22:50 sereno Sereno 27 16 50 1017 10 N 1.8
Ieri h: 22:20 sereno Sereno 28 17 51 1017 10 N 1.8
Ieri h: 21:50 sereno Sereno 29 17 48 1017 10 N 1.8
Ieri h: 21:20 sereno Sereno 29 20 58 1016 10 N 5.5
Ieri h: 20:50 sereno Sereno 28 21 65 1016 10 N 9.3
Ieri h: 20:20 sereno Sereno 29 19 54 1016 10 N 13
Ieri h: 19:50 sereno Sereno 31 16 40 1016 10 N 16.7
Ieri h: 19:20 sereno Sereno 32 13 31 1016 10 N 20.3
Ieri h: 18:50 sereno Sereno 32 14 33 1016 10 N 22.2
Ieri h: 18:20 sereno Sereno 33 14 31 1016 10 N 22.2
Ieri h: 17:50 sereno Sereno 34 13 28 1016 10 N 22.2
Ieri h: 17:20 sereno Sereno 34 14 30 1016 10 N 25.9
Ieri h: 16:50 sereno Sereno 35 13 26 1016 10 N 24
Ieri h: 16:20 sereno Sereno 35 15 30 1016 10 N 22.2
Ieri h: 15:50 sereno Sereno 35 15 30 1016 10 N 27.8
Ieri h: 15:20 poco_nuvoloso Poco Nuvoloso 35 17 34 1016 10 N 29.6
Ieri h: 14:50 poco_nuvoloso Poco Nuvoloso 35 16 32 1016 10 N 27.8
Ieri h: 14:20 poco_nuvoloso Poco Nuvoloso 36 16 30 1017 10 N 27.8
Ieri h: 13:50 sereno Sereno 36 14 26 1017 10 N 31.5
Ieri h: 13:20 poco_nuvoloso Poco Nuvoloso 36 13 25 1017 10 N 27.8
Ieri h: 12:50 poco_nuvoloso Poco Nuvoloso 36 12 23 1017 10 N 25.9
Ieri h: 12:20 poco_nuvoloso Poco Nuvoloso 36 12 23 1017 10 N 25.9
Ieri h: 11:50 sereno Sereno 36 12 23 1017 10 N/NO 24
Ieri h: 11:20 poco_nuvoloso Poco Nuvoloso 36 12 23 1017 10 N 22.2
Ieri h: 10:50 sereno Sereno 35 11 23 1017 10 N 24
Ieri h: 10:20 sereno Sereno 35 12 24 1017 10 N/NO 22.2
Ieri h: 09:50 sereno Sereno 31 18 45 1017 10 N 16.7
Ieri h: 09:20 sereno Sereno 32 14 33 1017 10 N/NO 9.3
Ieri h: 08:50 sereno Sereno 30 17 45 1018 10 N 3.7
Ieri h: 08:20 sereno Sereno 28 21 65 1018 10 N 5.5
Ieri h: 07:50 poco_nuvoloso Poco Nuvoloso 27 22 74 1018 10 N 5.5
Ieri h: 07:20 sereno Sereno 26 22 78 1017 10 N 5.5
Ieri h: 06:20 sereno Sereno 24 19 73 1016 10 N 5.5
Ieri h: 05:50 sereno Sereno 23 18 73 1016 10 N 5.5